PSW9901 YBAS-VHHX
Flight info
| Callsign | PSW9901 |
|---|---|
| Flight time | N/A |
| Altitude | FL340 |
| Route | DIGLA A461 AGUST/N0500F360 A461 BONDA/N0495F380 A461 ZAM A583 LEGED/N0489F400 A583 SABNO |
| Aircraft | B742/H-SDFHIRWXY/L |
Departure
| Time | N/A |
|---|---|
| Airport | Alice Springs Airport (YBAS) |
Arrival
| Time | 2026-05-06 13:48 |
|---|---|
| Airport | Hong Kong International Airport Kai Tak (VHHX) |
| Time | Latitude | Longitude | Altitude | Speed | Heading |
|---|---|---|---|---|---|
| 2026-05-06 12:52 | 17.71237 | 116.53890 | 38000 ft | 485 kts | 331° |
| 2026-05-06 12:52 | 17.74222 | 116.52249 | 38000 ft | 485 kts | 331° |
| 2026-05-06 12:53 | 17.80200 | 116.49012 | 38000 ft | 484 kts | 331° |
| 2026-05-06 12:53 | 17.86177 | 116.45822 | 38000 ft | 484 kts | 331° |
| 2026-05-06 12:54 | 17.92164 | 116.42632 | 38000 ft | 483 kts | 331° |
| 2026-05-06 12:54 | 17.98131 | 116.39442 | 38000 ft | 483 kts | 331° |
| 2026-05-06 12:55 | 18.04102 | 116.36237 | 38000 ft | 482 kts | 331° |
| 2026-05-06 12:55 | 18.10045 | 116.33033 | 38000 ft | 482 kts | 331° |
| 2026-05-06 12:56 | 18.16000 | 116.29814 | 38000 ft | 482 kts | 331° |
| 2026-05-06 12:56 | 18.21950 | 116.26590 | 38000 ft | 482 kts | 331° |
| 2026-05-06 12:57 | 18.27891 | 116.23363 | 38000 ft | 482 kts | 331° |
| 2026-05-06 12:57 | 18.33832 | 116.20131 | 38000 ft | 482 kts | 331° |
| 2026-05-06 12:58 | 18.39765 | 116.16899 | 38000 ft | 481 kts | 331° |
| 2026-05-06 12:58 | 18.45699 | 116.13661 | 38000 ft | 481 kts | 331° |
| 2026-05-06 12:59 | 18.51627 | 116.10424 | 38000 ft | 481 kts | 331° |
| 2026-05-06 12:59 | 18.57555 | 116.07182 | 38000 ft | 481 kts | 331° |
| 2026-05-06 13:00 | 18.63478 | 116.03939 | 38000 ft | 481 kts | 331° |
| 2026-05-06 13:00 | 18.69404 | 116.00689 | 38000 ft | 481 kts | 331° |
| 2026-05-06 13:01 | 18.75326 | 115.97435 | 38000 ft | 481 kts | 331° |
| 2026-05-06 13:01 | 18.81243 | 115.94177 | 38000 ft | 481 kts | 330° |
| 2026-05-06 13:02 | 18.87159 | 115.90909 | 38000 ft | 481 kts | 330° |
| 2026-05-06 13:02 | 18.93067 | 115.87626 | 38000 ft | 481 kts | 330° |
| 2026-05-06 13:03 | 18.98983 | 115.84347 | 38000 ft | 481 kts | 331° |
| 2026-05-06 13:03 | 19.04918 | 115.81120 | 38000 ft | 481 kts | 331° |
| 2026-05-06 13:04 | 19.10882 | 115.77891 | 38001 ft | 483 kts | 331° |
| 2026-05-06 13:04 | 19.16839 | 115.74657 | 38000 ft | 483 kts | 331° |
| 2026-05-06 13:05 | 19.22790 | 115.71416 | 37999 ft | 482 kts | 331° |
| 2026-05-06 13:05 | 19.28738 | 115.68163 | 38000 ft | 482 kts | 331° |
| 2026-05-06 13:06 | 19.34675 | 115.64908 | 38000 ft | 482 kts | 330° |
| 2026-05-06 13:06 | 19.40601 | 115.61648 | 38000 ft | 481 kts | 330° |
| 2026-05-06 13:07 | 19.46519 | 115.58385 | 38000 ft | 481 kts | 330° |
| 2026-05-06 13:07 | 19.52436 | 115.55117 | 38000 ft | 481 kts | 330° |
| 2026-05-06 13:08 | 19.58346 | 115.51848 | 38000 ft | 480 kts | 330° |
| 2026-05-06 13:08 | 19.64253 | 115.48576 | 38000 ft | 480 kts | 330° |
| 2026-05-06 13:09 | 19.70161 | 115.45300 | 38000 ft | 480 kts | 330° |
| 2026-05-06 13:09 | 19.76064 | 115.42023 | 38000 ft | 480 kts | 330° |
| 2026-05-06 13:10 | 19.81965 | 115.38747 | 38000 ft | 480 kts | 330° |
| 2026-05-06 13:10 | 19.87863 | 115.35467 | 38000 ft | 480 kts | 330° |
| 2026-05-06 13:11 | 19.93755 | 115.32188 | 38000 ft | 479 kts | 330° |
| 2026-05-06 13:11 | 19.99644 | 115.28906 | 38000 ft | 479 kts | 330° |
| 2026-05-06 13:12 | 20.05534 | 115.25621 | 38000 ft | 479 kts | 330° |
| 2026-05-06 13:12 | 20.11418 | 115.22336 | 38000 ft | 479 kts | 330° |
| 2026-05-06 13:13 | 20.17307 | 115.19045 | 38000 ft | 479 kts | 330° |
| 2026-05-06 13:13 | 20.23195 | 115.15753 | 38000 ft | 479 kts | 330° |
| 2026-05-06 13:14 | 20.29081 | 115.12458 | 37999 ft | 480 kts | 330° |
| 2026-05-06 13:14 | 20.34975 | 115.09156 | 38000 ft | 480 kts | 330° |
| 2026-05-06 13:15 | 20.40874 | 115.05849 | 38000 ft | 481 kts | 330° |
| 2026-05-06 13:15 | 20.46774 | 115.02537 | 38000 ft | 481 kts | 330° |
| 2026-05-06 13:16 | 20.52679 | 114.99220 | 37975 ft | 482 kts | 330° |
| 2026-05-06 13:16 | 20.55649 | 114.97549 | 37614 ft | 487 kts | 330° |
| 2026-05-06 13:16 | 20.58634 | 114.95870 | 37139 ft | 485 kts | 330° |
| 2026-05-06 13:16 | 20.61612 | 114.94195 | 36644 ft | 485 kts | 330° |
| 2026-05-06 13:17 | 20.64584 | 114.92522 | 36146 ft | 484 kts | 330° |
| 2026-05-06 13:17 | 20.67549 | 114.90853 | 35648 ft | 482 kts | 330° |
| 2026-05-06 13:17 | 20.70503 | 114.89189 | 35149 ft | 480 kts | 330° |
| 2026-05-06 13:17 | 20.73439 | 114.87534 | 34651 ft | 478 kts | 330° |
| 2026-05-06 13:18 | 20.76365 | 114.85884 | 34151 ft | 475 kts | 330° |
| 2026-05-06 13:18 | 20.79271 | 114.84243 | 33632 ft | 472 kts | 330° |
| 2026-05-06 13:18 | 20.82158 | 114.82612 | 33088 ft | 469 kts | 330° |
| 2026-05-06 13:18 | 20.85027 | 114.80987 | 32537 ft | 467 kts | 331° |
| 2026-05-06 13:19 | 20.87889 | 114.79367 | 31990 ft | 467 kts | 330° |
| 2026-05-06 13:19 | 20.90739 | 114.77754 | 31425 ft | 463 kts | 330° |
| 2026-05-06 13:19 | 20.93567 | 114.76152 | 30853 ft | 460 kts | 330° |
| 2026-05-06 13:19 | 20.96375 | 114.74559 | 30279 ft | 456 kts | 330° |
| 2026-05-06 13:20 | 20.99155 | 114.72981 | 29705 ft | 452 kts | 329° |
| 2026-05-06 13:20 | 21.01908 | 114.71417 | 29130 ft | 447 kts | 329° |
| 2026-05-06 13:20 | 21.04640 | 114.69864 | 28555 ft | 443 kts | 329° |
| 2026-05-06 13:20 | 21.07333 | 114.68331 | 27981 ft | 438 kts | 329° |
| 2026-05-06 13:21 | 21.10001 | 114.66811 | 27407 ft | 433 kts | 329° |
| 2026-05-06 13:21 | 21.12642 | 114.65304 | 26832 ft | 429 kts | 329° |
| 2026-05-06 13:21 | 21.15254 | 114.63812 | 26258 ft | 425 kts | 329° |
| 2026-05-06 13:21 | 21.17843 | 114.62331 | 25683 ft | 421 kts | 329° |
| 2026-05-06 13:22 | 21.20401 | 114.60865 | 25091 ft | 417 kts | 329° |
| 2026-05-06 13:22 | 21.22896 | 114.59433 | 24483 ft | 413 kts | 330° |
| 2026-05-06 13:22 | 21.25177 | 114.58121 | 23917 ft | 409 kts | 329° |
| 2026-05-06 13:22 | 21.27665 | 114.56686 | 23292 ft | 405 kts | 329° |
| 2026-05-06 13:23 | 21.30123 | 114.55265 | 22668 ft | 401 kts | 330° |
| 2026-05-06 13:23 | 21.32571 | 114.53874 | 22044 ft | 397 kts | 330° |
| 2026-05-06 13:23 | 21.35003 | 114.52513 | 21405 ft | 394 kts | 330° |
| 2026-05-06 13:23 | 21.37418 | 114.51174 | 20757 ft | 390 kts | 330° |
| 2026-05-06 13:24 | 21.39810 | 114.49851 | 20108 ft | 386 kts | 331° |
| 2026-05-06 13:24 | 21.42178 | 114.48540 | 19459 ft | 382 kts | 331° |
| 2026-05-06 13:24 | 21.44519 | 114.47239 | 18810 ft | 378 kts | 331° |
| 2026-05-06 13:24 | 21.46948 | 114.46210 | 18163 ft | 376 kts | 342° |
| 2026-05-06 13:25 | 21.49497 | 114.45722 | 17526 ft | 372 kts | 351° |
| 2026-05-06 13:25 | 21.52061 | 114.45577 | 16883 ft | 369 kts | 357° |
| 2026-05-06 13:25 | 21.54610 | 114.45639 | 16237 ft | 366 kts | 0° |
| 2026-05-06 13:25 | 21.57128 | 114.45820 | 15589 ft | 362 kts | 2° |
| 2026-05-06 13:26 | 21.59622 | 114.46065 | 14941 ft | 359 kts | 3° |
| 2026-05-06 13:26 | 21.62087 | 114.46340 | 14292 ft | 355 kts | 3° |
| 2026-05-06 13:26 | 21.64529 | 114.46625 | 13643 ft | 352 kts | 4° |
| 2026-05-06 13:26 | 21.66944 | 114.46909 | 12994 ft | 349 kts | 4° |
| 2026-05-06 13:27 | 21.69337 | 114.47186 | 12346 ft | 346 kts | 4° |
| 2026-05-06 13:27 | 21.71713 | 114.47455 | 11697 ft | 343 kts | 4° |
| 2026-05-06 13:27 | 21.74068 | 114.47715 | 11071 ft | 339 kts | 4° |
| 2026-05-06 13:27 | 21.76350 | 114.47965 | 10980 ft | 333 kts | 3° |
| 2026-05-06 13:28 | 21.78667 | 114.48215 | 10966 ft | 329 kts | 3° |
| 2026-05-06 13:28 | 21.80889 | 114.48451 | 10961 ft | 318 kts | 3° |
| 2026-05-06 13:28 | 21.83059 | 114.48677 | 10962 ft | 311 kts | 2° |
| 2026-05-06 13:28 | 21.85195 | 114.48895 | 10964 ft | 308 kts | 2° |
| 2026-05-06 13:29 | 21.87307 | 114.49106 | 10965 ft | 305 kts | 2° |
| 2026-05-06 13:29 | 21.89407 | 114.49315 | 10966 ft | 303 kts | 2° |
| 2026-05-06 13:29 | 21.91497 | 114.49522 | 10967 ft | 302 kts | 2° |
| 2026-05-06 13:29 | 21.93579 | 114.49727 | 10967 ft | 301 kts | 2° |
| 2026-05-06 13:30 | 21.95657 | 114.49932 | 10967 ft | 300 kts | 2° |
| 2026-05-06 13:30 | 21.97733 | 114.50136 | 10968 ft | 300 kts | 2° |
| 2026-05-06 13:30 | 21.99806 | 114.50339 | 10969 ft | 300 kts | 2° |
| 2026-05-06 13:30 | 22.01881 | 114.50361 | 10973 ft | 299 kts | 353° |
| 2026-05-06 13:31 | 22.03937 | 114.50064 | 10921 ft | 300 kts | 348° |
| 2026-05-06 13:31 | 22.06002 | 114.49659 | 10427 ft | 302 kts | 346° |
| 2026-05-06 13:31 | 22.08062 | 114.49295 | 9927 ft | 301 kts | 350° |
| 2026-05-06 13:31 | 22.10106 | 114.48930 | 9411 ft | 297 kts | 341° |
| 2026-05-06 13:32 | 22.11905 | 114.47891 | 8928 ft | 294 kts | 321° |
| 2026-05-06 13:32 | 22.13316 | 114.46332 | 8433 ft | 290 kts | 304° |
| 2026-05-06 13:32 | 22.14287 | 114.44448 | 7958 ft | 287 kts | 293° |
| 2026-05-06 13:32 | 22.14967 | 114.42443 | 7464 ft | 285 kts | 285° |
| 2026-05-06 13:33 | 22.15447 | 114.40380 | 6971 ft | 284 kts | 281° |
| 2026-05-06 13:33 | 22.15843 | 114.38302 | 6475 ft | 283 kts | 279° |
| 2026-05-06 13:33 | 22.16207 | 114.36224 | 5978 ft | 283 kts | 279° |
| 2026-05-06 13:33 | 22.16561 | 114.34135 | 5475 ft | 284 kts | 278° |
| 2026-05-06 13:34 | 22.16916 | 114.32043 | 4982 ft | 285 kts | 279° |
| 2026-05-06 13:34 | 22.17277 | 114.29948 | 4483 ft | 285 kts | 279° |
| 2026-05-06 13:34 | 22.17647 | 114.27862 | 4087 ft | 281 kts | 279° |
| 2026-05-06 13:34 | 22.18013 | 114.25828 | 4054 ft | 277 kts | 279° |
| 2026-05-06 13:35 | 22.18375 | 114.23815 | 4046 ft | 274 kts | 279° |
| 2026-05-06 13:35 | 22.18735 | 114.21810 | 4044 ft | 273 kts | 279° |
| 2026-05-06 13:35 | 22.19099 | 114.19812 | 4044 ft | 272 kts | 279° |
| 2026-05-06 13:35 | 22.19460 | 114.17816 | 4043 ft | 270 kts | 279° |
| 2026-05-06 13:36 | 22.19820 | 114.15825 | 4046 ft | 270 kts | 279° |
| 2026-05-06 13:36 | 22.20181 | 114.13835 | 4047 ft | 270 kts | 279° |
| 2026-05-06 13:36 | 22.20545 | 114.11846 | 4050 ft | 270 kts | 279° |
| 2026-05-06 13:36 | 22.20910 | 114.09855 | 4052 ft | 271 kts | 279° |
| 2026-05-06 13:37 | 22.21274 | 114.07867 | 4054 ft | 271 kts | 279° |
| 2026-05-06 13:37 | 22.21702 | 114.05895 | 4029 ft | 273 kts | 284° |
| 2026-05-06 13:37 | 22.22170 | 114.03939 | 4050 ft | 272 kts | 282° |
| 2026-05-06 13:37 | 22.22451 | 114.01935 | 4058 ft | 271 kts | 272° |
| 2026-05-06 13:38 | 22.22476 | 113.99959 | 4087 ft | 253 kts | 268° |
| 2026-05-06 13:38 | 22.22408 | 113.98107 | 3873 ft | 243 kts | 265° |
| 2026-05-06 13:38 | 22.22322 | 113.96339 | 3541 ft | 232 kts | 265° |
| 2026-05-06 13:38 | 22.22235 | 113.94641 | 3207 ft | 223 kts | 265° |
| 2026-05-06 13:39 | 22.22147 | 113.92995 | 2872 ft | 217 kts | 265° |
| 2026-05-06 13:39 | 22.22060 | 113.91386 | 2542 ft | 214 kts | 264° |
| 2026-05-06 13:39 | 22.22023 | 113.89799 | 2200 ft | 212 kts | 272° |
| 2026-05-06 13:39 | 22.22569 | 113.88353 | 2073 ft | 211 kts | 304° |
| 2026-05-06 13:40 | 22.23709 | 113.87401 | 2047 ft | 210 kts | 335° |
| 2026-05-06 13:40 | 22.25127 | 113.87189 | 2058 ft | 208 kts | 5° |
| 2026-05-06 13:40 | 22.26497 | 113.87607 | 2082 ft | 205 kts | 22° |
| 2026-05-06 13:40 | 22.27796 | 113.88204 | 2047 ft | 203 kts | 25° |
| 2026-05-06 13:41 | 22.29065 | 113.88841 | 2037 ft | 201 kts | 26° |
| 2026-05-06 13:41 | 22.30325 | 113.89484 | 2035 ft | 200 kts | 27° |
| 2026-05-06 13:41 | 22.31410 | 113.90389 | 2007 ft | 198 kts | 50° |
| 2026-05-06 13:41 | 22.31893 | 113.91678 | 2058 ft | 180 kts | 78° |
| 2026-05-06 13:42 | 22.31988 | 113.93008 | 2076 ft | 176 kts | 89° |
| 2026-05-06 13:42 | 22.31968 | 113.94168 | 2056 ft | 172 kts | 92° |
| 2026-05-06 13:42 | 22.31918 | 113.95442 | 2053 ft | 169 kts | 93° |
| 2026-05-06 13:42 | 22.31882 | 113.96698 | 2061 ft | 167 kts | 92° |
| 2026-05-06 13:43 | 22.31885 | 113.97943 | 2050 ft | 166 kts | 90° |
| 2026-05-06 13:43 | 22.31931 | 113.99181 | 2052 ft | 165 kts | 88° |
| 2026-05-06 13:43 | 22.32013 | 114.00415 | 2052 ft | 165 kts | 86° |
| 2026-05-06 13:43 | 22.32120 | 114.01637 | 2056 ft | 165 kts | 85° |
| 2026-05-06 13:44 | 22.32233 | 114.02871 | 2051 ft | 165 kts | 85° |
| 2026-05-06 13:44 | 22.32339 | 114.04099 | 2044 ft | 165 kts | 86° |
| 2026-05-06 13:44 | 22.32436 | 114.05327 | 2046 ft | 165 kts | 86° |
| 2026-05-06 13:44 | 22.32519 | 114.06554 | 2027 ft | 164 kts | 87° |
| 2026-05-06 13:45 | 22.32593 | 114.07781 | 2001 ft | 164 kts | 87° |
| 2026-05-06 13:45 | 22.32738 | 114.10171 | 1711 ft | 157 kts | 87° |
| 2026-05-06 13:45 | 22.32812 | 114.11341 | 1441 ft | 153 kts | 87° |
| 2026-05-06 13:46 | 22.32893 | 114.12475 | 1266 ft | 151 kts | 87° |
| 2026-05-06 13:46 | 22.32963 | 114.13589 | 1099 ft | 147 kts | 88° |
| 2026-05-06 13:46 | 22.33032 | 114.14688 | 923 ft | 146 kts | 88° |
| 2026-05-06 13:46 | 22.33108 | 114.15795 | 753 ft | 148 kts | 88° |
| 2026-05-06 13:47 | 22.33160 | 114.16899 | 551 ft | 147 kts | 90° |
| 2026-05-06 13:47 | 22.33109 | 114.18001 | 383 ft | 147 kts | 98° |
| 2026-05-06 13:47 | 22.32752 | 114.19030 | 204 ft | 148 kts | 117° |
| 2026-05-06 13:47 | 22.32063 | 114.19840 | 37 ft | 146 kts | 136° |
| 2026-05-06 13:48 | 22.31381 | 114.20566 | 22 ft | 119 kts | 136° |
| 2026-05-06 13:48 | 22.31025 | 114.20946 | 22 ft | 39 kts | 124° |
| 2026-05-06 13:48 | 22.30902 | 114.21118 | 22 ft | 15 kts | 128° |
| 2026-05-06 13:48 | 22.30873 | 114.21173 | 22 ft | 5 kts | 108° |
| 2026-05-06 13:49 | 22.30872 | 114.21180 | 22 ft | 0 kts | 96° |
| 2026-05-06 13:49 | 22.30870 | 114.21204 | 22 ft | 7 kts | 91° |
| 2026-05-06 13:49 | 22.30882 | 114.21248 | 22 ft | 4 kts | 44° |
| 2026-05-06 13:50 | 22.30896 | 114.21255 | 22 ft | 2 kts | 12° |
| 2026-05-06 13:50 | 22.30928 | 114.21245 | 22 ft | 14 kts | 323° |
| 2026-05-06 13:50 | 22.31055 | 114.21105 | 22 ft | 36 kts | 313° |
| 2026-05-06 13:50 | 22.31260 | 114.20875 | 22 ft | 44 kts | 312° |